Time;durP1;ratioP1;P1;durP2;ratioP2;P2;SDS_P1;SDS_P2;PMS_P1;PMS_P2;Temp;Humidity;BMP_temperature;BMP_pressure;BME280_temperature;BME280_humidity;BME280_pressure;Samples;Min_cycle;Max_cycle;Signal;HPM_P1;HPM_P2
2021/04/26 00:00:53;;;;;;;5.90;3.60;;;;;;;4.08;54.31;98459.50;5058400;28;20205;-71
2021/04/26 00:03:21;;;;;;;5.03;3.37;;;;;;;4.24;53.46;98461.03;5056327;28;20287;-71
2021/04/26 00:05:48;;;;;;;5.27;3.73;;;;;;;4.34;53.09;98456.78;5059865;28;20724;-71
2021/04/26 00:08:15;;;;;;;6.17;4.20;;;;;;;4.22;53.33;98453.25;5062874;28;20202;-71
2021/04/26 00:10:42;;;;;;;5.80;3.37;;;;;;;4.09;54.83;98449.88;5057004;28;20223;-71
2021/04/26 00:13:09;;;;;;;6.17;3.57;;;;;;;4.10;54.26;98448.91;5061453;28;20206;-71
2021/04/26 00:15:44;;;;;;;4.00;3.63;;;;;;;4.17;54.21;98444.91;5059714;28;20284;-71
2021/04/26 00:18:11;;;;;;;11.07;4.20;;;;;;;4.10;54.57;98444.50;5057973;28;20224;-70
2021/04/26 00:20:40;;;;;;;5.33;4.27;;;;;;;4.04;54.47;98447.56;5059861;28;20480;-68
2021/04/26 00:23:08;;;;;;;5.20;3.90;;;;;;;4.03;54.30;98440.66;5058971;28;20223;-70
2021/04/26 00:25:35;;;;;;;4.20;3.80;;;;;;;4.01;54.91;98445.16;5062931;28;20572;-71
2021/04/26 00:28:03;;;;;;;3.90;3.67;;;;;;;4.05;54.03;98444.00;5059654;28;20726;-71
2021/04/26 00:30:30;;;;;;;4.63;3.90;;;;;;;4.01;54.92;98434.69;5057786;28;20223;-71
2021/04/26 00:32:58;;;;;;;8.27;4.13;;;;;;;3.93;55.61;98429.16;5055393;28;20231;-71
2021/04/26 00:35:25;;;;;;;4.03;3.63;;;;;;;3.97;54.72;98431.44;5061607;28;20579;-70
2021/04/26 00:37:54;;;;;;;5.43;4.80;;;;;;;3.97;54.98;98431.44;5061060;28;20776;-71
2021/04/26 00:40:22;;;;;;;3.90;3.70;;;;;;;3.83;55.33;98423.75;5064376;28;20207;-71
2021/04/26 00:42:49;;;;;;;4.73;4.13;;;;;;;3.84;55.09;98436.75;5061687;28;20256;-71
2021/04/26 00:45:20;;;;;;;4.30;3.70;;;;;;;3.90;54.99;98425.81;5058696;28;20218;-71
2021/04/26 00:47:48;;;;;;;4.80;3.73;;;;;;;3.89;55.05;98433.78;5058932;28;20231;-70
2021/04/26 00:50:18;;;;;;;5.07;4.67;;;;;;;3.77;55.41;98427.63;5062260;28;20227;-71
2021/04/26 00:52:45;;;;;;;4.60;4.20;;;;;;;3.81;55.01;98436.97;5058882;28;21038;-71
2021/04/26 00:55:14;;;;;;;4.30;4.00;;;;;;;3.65;56.20;98428.50;5063034;28;20210;-71
2021/04/26 00:57:42;;;;;;;4.40;4.00;;;;;;;3.62;56.07;98424.34;5060592;28;20199;-70
2021/04/26 01:00:11;;;;;;;4.43;3.87;;;;;;;3.53;56.67;98424.97;5062054;28;20207;-71
2021/04/26 01:02:38;;;;;;;5.83;4.50;;;;;;;3.60;56.09;98421.81;5061662;28;20599;-70
2021/04/26 01:05:09;;;;;;;4.37;4.07;;;;;;;3.45;56.50;98428.97;5063286;28;20275;-71
2021/04/26 01:07:38;;;;;;;4.40;4.00;;;;;;;3.45;56.26;98418.50;5059241;28;20210;-71
2021/04/26 01:10:07;;;;;;;4.50;4.17;;;;;;;3.37;56.37;98418.22;5059272;28;20226;-71
2021/04/26 01:12:47;;;;;;;5.00;4.60;;;;;;;3.37;56.82;98412.97;5056253;28;20509;-71
2021/04/26 01:15:19;;;;;;;4.47;4.17;;;;;;;3.50;56.37;98412.09;5059270;28;20209;-71
2021/04/26 01:17:49;;;;;;;4.87;4.37;;;;;;;3.73;56.03;98407.81;5058437;28;20549;-70
2021/04/26 01:20:49;;;;;;;4.70;4.30;;;;;;;3.66;56.50;98406.59;5055786;28;20207;-71
2021/04/26 01:23:54;;;;;;;7.70;4.17;;;;;;;3.51;55.81;98417.25;5062052;28;20271;-71
2021/04/26 01:26:29;;;;;;;4.80;4.40;;;;;;;3.38;56.74;98409.41;5061080;28;20636;-71
2021/04/26 01:29:07;;;;;;;5.80;3.83;;;;;;;3.50;56.62;98402.47;5061943;28;20202;-71
2021/04/26 01:31:43;;;;;;;4.50;4.17;;;;;;;3.59;56.47;98403.56;5053926;28;20233;-71
2021/04/26 01:34:11;;;;;;;4.87;4.40;;;;;;;3.43;56.58;98401.22;5059658;28;20565;-71
2021/04/26 01:36:39;;;;;;;5.90;4.37;;;;;;;3.40;57.24;98404.03;5057431;28;20199;-69
2021/04/26 01:39:06;;;;;;;5.07;4.57;;;;;;;3.38;57.69;98398.06;5056427;28;20262;-71
2021/04/26 01:41:34;;;;;;;4.77;4.33;;;;;;;3.74;56.17;98393.78;5059465;28;20227;-71
2021/04/26 01:44:02;;;;;;;5.03;4.47;;;;;;;3.69;56.25;98388.03;5055207;28;20207;-71
2021/04/26 01:46:30;;;;;;;8.67;4.50;;;;;;;3.71;56.42;98384.34;5053714;28;20256;-71
2021/04/26 01:48:58;;;;;;;5.40;4.40;;;;;;;3.69;56.14;98388.88;5056764;28;20207;-70
2021/04/26 01:51:26;;;;;;;5.60;4.83;;;;;;;3.61;55.94;98392.03;5055503;28;20231;-71
2021/04/26 01:54:01;;;;;;;4.80;4.43;;;;;;;3.45;56.83;98391.47;5057755;28;20995;-71
2021/04/26 01:56:28;;;;;;;6.07;4.80;;;;;;;3.36;57.79;98386.88;5054343;28;20206;-70
2021/04/26 01:58:56;;;;;;;6.70;4.57;;;;;;;3.39;58.12;98379.63;5060209;28;20203;-71
2021/04/26 02:01:24;;;;;;;4.93;4.47;;;;;;;3.40;59.31;98378.69;5060118;28;20711;-71
2021/04/26 02:03:54;;;;;;;4.23;3.93;;;;;;;3.51;58.43;98371.84;5059686;28;20202;-71
2021/04/26 02:06:22;;;;;;;5.40;4.90;;;;;;;3.54;57.98;98367.22;5061246;28;20348;-71
2021/04/26 02:08:51;;;;;;;6.80;4.67;;;;;;;3.43;57.25;98375.84;5060732;28;20293;-71
2021/04/26 02:11:18;;;;;;;5.53;4.30;;;;;;;3.40;56.99;98373.44;5059948;28;20241;-71
2021/04/26 02:13:47;;;;;;;5.20;4.63;;;;;;;3.38;57.87;98367.47;5056594;28;20220;-71
2021/04/26 02:16:15;;;;;;;4.90;3.80;;;;;;;3.38;58.15;98362.25;5058237;28;20578;-71
2021/04/26 02:18:42;;;;;;;6.30;4.27;;;;;;;3.41;57.98;98359.41;5055832;28;20230;-71
2021/04/26 02:21:09;;;;;;;4.40;4.10;;;;;;;3.45;57.77;98342.50;5056845;28;20226;-71
2021/04/26 02:23:37;;;;;;;6.60;4.03;;;;;;;3.54;56.92;98351.50;5056864;28;20207;-71
2021/04/26 02:26:05;;;;;;;4.67;4.27;;;;;;;3.58;57.07;98339.00;5059226;28;20241;-71
2021/04/26 02:28:32;;;;;;;4.10;3.80;;;;;;;3.70;56.05;98329.41;5056696;28;20694;-71
2021/04/26 02:31:00;;;;;;;4.93;4.53;;;;;;;3.76;56.37;98326.34;5058516;28;20229;-70
2021/04/26 02:33:31;;;;;;;4.70;4.30;;;;;;;3.71;56.73;98328.47;5060124;28;20674;-70
2021/04/26 02:36:03;;;;;;;6.73;4.20;;;;;;;3.72;56.13;98330.97;5060758;28;20627;-71
2021/04/26 02:38:32;;;;;;;4.57;4.23;;;;;;;3.51;57.94;98327.28;5056222;28;20222;-70
2021/04/26 02:41:06;;;;;;;4.50;4.17;;;;;;;3.55;57.08;98326.97;5060388;28;20210;-71
2021/04/26 02:43:38;;;;;;;4.63;4.13;;;;;;;3.61;56.95;98325.69;5060558;28;20221;-71
2021/04/26 02:46:06;;;;;;;4.93;4.17;;;;;;;3.54;57.24;98313.97;5060121;28;20202;-71
2021/04/26 02:48:33;;;;;;;5.07;3.90;;;;;;;3.65;57.35;98308.78;5059131;28;20930;-69
2021/04/26 02:51:01;;;;;;;4.97;4.33;;;;;;;3.67;56.08;98300.81;5060073;28;20222;-69
2021/04/26 02:53:30;;;;;;;6.00;4.77;;;;;;;3.75;56.58;98301.91;5060141;28;20210;-71
2021/04/26 02:56:00;;;;;;;5.17;4.73;;;;;;;3.80;56.62;98293.72;5059680;28;20289;-72
2021/04/26 02:58:31;;;;;;;5.80;4.80;;;;;;;3.84;56.95;98296.94;5055995;28;20245;-71
2021/04/26 03:00:58;;;;;;;5.97;4.47;;;;;;;3.72;56.87;98281.19;5056327;28;20214;-72
2021/04/26 03:03:26;;;;;;;4.70;4.33;;;;;;;3.75;56.96;98286.19;5058068;28;20395;-72
2021/04/26 03:05:54;;;;;;;5.90;4.93;;;;;;;3.62;57.75;98278.38;5057883;28;20207;-72
2021/04/26 03:08:21;;;;;;;4.53;4.23;;;;;;;3.61;58.01;98275.91;5058383;28;20723;-73
2021/04/26 03:10:48;;;;;;;4.80;4.40;;;;;;;3.64;57.05;98274.81;5060395;28;20539;-71
2021/04/26 03:13:16;;;;;;;5.03;4.50;;;;;;;3.62;56.67;98270.53;5058232;28;20376;-72
2021/04/26 03:15:44;;;;;;;4.97;4.10;;;;;;;3.55;57.60;98268.47;5060134;28;20248;-71
2021/04/26 03:18:13;;;;;;;6.63;4.63;;;;;;;3.51;58.16;98269.63;5060072;28;20207;-72
2021/04/26 03:20:40;;;;;;;4.43;4.03;;;;;;;3.60;57.20;98264.56;5060685;28;20671;-70
2021/04/26 03:23:08;;;;;;;4.83;4.43;;;;;;;3.45;58.08;98261.28;5056121;28;20219;-72
2021/04/26 03:25:36;;;;;;;4.90;4.20;;;;;;;3.56;57.32;98251.78;5061402;28;20230;-72
2021/04/26 03:28:04;;;;;;;6.47;4.47;;;;;;;3.55;57.92;98255.34;5060181;28;20217;-71
2021/04/26 03:30:32;;;;;;;6.37;4.43;;;;;;;3.27;58.70;98252.16;5062850;28;20695;-71
2021/04/26 03:33:00;;;;;;;5.07;4.57;;;;;;;3.28;59.33;98251.22;5061263;28;20246;-72
2021/04/26 03:35:27;;;;;;;5.43;3.90;;;;;;;3.30;58.30;98254.56;5061342;28;20203;-71
2021/04/26 03:37:55;;;;;;;5.57;4.37;;;;;;;3.39;58.42;98247.78;5063112;28;20211;-72
2021/04/26 03:40:26;;;;;;;4.70;4.30;;;;;;;3.31;58.54;98238.72;5060996;28;20202;-71
2021/04/26 03:42:53;;;;;;;4.33;3.93;;;;;;;3.38;57.47;98233.88;5060702;28;20219;-71
2021/04/26 03:45:20;;;;;;;4.53;4.13;;;;;;;3.31;58.92;98230.84;5059459;28;20207;-71
2021/04/26 03:47:48;;;;;;;6.00;5.10;;;;;;;3.35;57.57;98230.63;5061141;28;20650;-71
2021/04/26 03:50:16;;;;;;;4.77;4.47;;;;;;;3.32;57.81;98224.66;5060352;28;20237;-71
2021/04/26 03:52:43;;;;;;;4.83;4.47;;;;;;;3.22;58.24;98230.69;5060471;28;20223;-71
2021/04/26 03:55:12;;;;;;;4.67;4.27;;;;;;;3.43;57.13;98225.69;5061230;28;20446;-71
2021/04/26 03:57:39;;;;;;;4.87;4.47;;;;;;;3.40;57.85;98225.88;5058998;28;20214;-69
2021/04/26 04:00:09;;;;;;;5.70;4.77;;;;;;;3.23;58.78;98221.91;5059128;28;20234;-70
2021/04/26 04:02:36;;;;;;;4.27;3.97;;;;;;;3.08;58.94;98213.38;5063809;28;20226;-72
2021/04/26 04:05:03;;;;;;;4.40;4.03;;;;;;;3.03;59.96;98219.78;5057559;28;20396;-71
2021/04/26 04:07:31;;;;;;;4.87;4.47;;;;;;;2.93;60.55;98225.78;5061150;28;20214;-71
2021/04/26 04:09:58;;;;;;;5.13;4.63;;;;;;;3.04;59.74;98223.22;5061500;28;20641;-71
2021/04/26 04:12:25;;;;;;;5.50;5.00;;;;;;;2.97;60.09;98228.06;5063822;28;20851;-71
2021/04/26 04:14:52;;;;;;;4.03;3.80;;;;;;;2.99;60.06;98231.41;5062167;28;20207;-66
2021/04/26 04:17:19;;;;;;;8.33;4.83;;;;;;;2.87;60.14;98232.28;5060012;28;20329;-66
2021/04/26 04:19:46;;;;;;;5.53;4.07;;;;;;;3.00;59.81;98227.81;5056051;28;20207;-66
2021/04/26 04:22:13;;;;;;;5.13;4.73;;;;;;;3.02;59.70;98227.72;5060492;28;20422;-65
2021/04/26 04:24:41;;;;;;;4.20;3.90;;;;;;;3.00;59.93;98224.38;5060204;28;20203;-64
2021/04/26 04:27:08;;;;;;;5.00;4.50;;;;;;;2.98;60.29;98223.66;5059766;28;20262;-65
2021/04/26 04:29:35;;;;;;;6.97;4.97;;;;;;;3.01;59.83;98231.28;5059693;28;20215;-64
2021/04/26 04:32:03;;;;;;;8.30;5.00;;;;;;;2.97;60.28;98235.09;5062981;28;20771;-65
2021/04/26 04:34:30;;;;;;;4.63;4.07;;;;;;;2.96;59.98;98234.22;5060043;28;20261;-64
2021/04/26 04:36:57;;;;;;;5.10;4.63;;;;;;;2.95;60.78;98232.56;5058259;28;20200;-64
2021/04/26 04:39:24;;;;;;;5.67;5.13;;;;;;;2.97;60.35;98235.91;5062531;28;20697;-68
2021/04/26 04:41:52;;;;;;;4.53;4.13;;;;;;;2.97;60.50;98235.91;5061335;28;20226;-65
2021/04/26 04:44:19;;;;;;;6.67;5.37;;;;;;;3.00;60.12;98234.84;5062071;28;20582;-70
2021/04/26 04:46:46;;;;;;;9.00;4.93;;;;;;;2.81;61.65;98233.53;5062795;28;20686;-69
2021/04/26 04:49:13;;;;;;;5.07;4.60;;;;;;;3.01;61.00;98239.16;5062811;28;20397;-71
2021/04/26 04:51:43;;;;;;;4.90;4.50;;;;;;;2.95;61.16;98239.59;5062884;28;20769;-69
2021/04/26 04:54:10;;;;;;;4.63;4.23;;;;;;;2.95;61.04;98235.19;5061933;28;20199;-71
2021/04/26 04:56:38;;;;;;;8.10;5.37;;;;;;;2.75;61.29;98231.34;5060413;28;20202;-72
2021/04/26 04:59:06;;;;;;;5.20;4.80;;;;;;;2.63;62.41;98240.09;5059652;28;20203;-72
2021/04/26 05:01:33;;;;;;;5.80;5.00;;;;;;;2.83;62.03;98233.44;5054998;28;20230;-71
2021/04/26 05:04:00;;;;;;;6.23;5.30;;;;;;;2.87;62.47;98246.22;5059321;28;20297;-70
2021/04/26 05:06:27;;;;;;;5.73;4.60;;;;;;;3.00;62.05;98248.78;5062520;28;20659;-71
2021/04/26 05:08:54;;;;;;;5.30;4.80;;;;;;;3.10;60.79;98248.13;5061745;28;20230;-71
2021/04/26 05:11:22;;;;;;;6.03;5.53;;;;;;;3.06;61.88;98252.75;5061061;28;20222;-70
2021/04/26 05:13:49;;;;;;;5.17;4.73;;;;;;;3.26;62.42;98250.50;5059623;28;20631;-72
2021/04/26 05:16:18;;;;;;;6.20;5.60;;;;;;;3.31;61.30;98254.44;5061822;28;20209;-72
2021/04/26 05:18:45;;;;;;;7.30;4.63;;;;;;;3.39;60.27;98253.03;5058548;28;20199;-72
2021/04/26 05:21:12;;;;;;;5.60;4.93;;;;;;;3.28;60.34;98246.78;5065755;28;20223;-71
2021/04/26 05:23:39;;;;;;;5.60;5.10;;;;;;;3.31;62.05;98245.75;5057545;28;20203;-69
2021/04/26 05:26:06;;;;;;;5.87;5.40;;;;;;;3.28;59.55;98248.59;5060956;28;20214;-70
2021/04/26 05:28:33;;;;;;;4.97;4.57;;;;;;;3.24;60.86;98255.00;5061857;28;20218;-71
2021/04/26 05:31:00;;;;;;;6.57;5.93;;;;;;;3.43;60.75;98252.69;5059194;28;20238;-70
2021/04/26 05:33:28;;;;;;;4.97;4.47;;;;;;;3.38;60.09;98254.81;5061093;28;20253;-69
2021/04/26 05:35:55;;;;;;;6.07;5.57;;;;;;;3.62;60.18;98256.59;5061931;28;20462;-71
2021/04/26 05:38:22;;;;;;;5.03;4.73;;;;;;;3.56;59.87;98255.25;5061022;28;20199;-72
2021/04/26 05:40:49;;;;;;;5.20;4.80;;;;;;;3.70;59.21;98251.63;5057598;28;20280;-71
2021/04/26 05:43:16;;;;;;;4.87;4.37;;;;;;;3.66;58.47;98252.81;5060444;28;20210;-71
2021/04/26 05:45:44;;;;;;;6.50;4.80;;;;;;;3.75;58.97;98251.25;5061745;28;20679;-70
2021/04/26 05:48:11;;;;;;;6.80;5.80;;;;;;;3.78;58.36;98255.44;5060701;28;20249;-70
2021/04/26 05:50:39;;;;;;;4.67;4.27;;;;;;;3.82;59.40;98249.03;5056618;28;20730;-69
2021/04/26 05:53:06;;;;;;;4.83;4.43;;;;;;;4.03;58.09;98252.66;5058600;28;20234;-69
2021/04/26 05:55:34;;;;;;;4.40;4.00;;;;;;;3.93;58.07;98249.03;5061617;28;20207;-68
2021/04/26 05:58:01;;;;;;;5.07;4.50;;;;;;;3.96;57.43;98246.19;5054074;28;20606;-68
2021/04/26 06:00:28;;;;;;;4.73;3.90;;;;;;;4.07;57.22;98252.44;5062015;28;20210;-69
2021/04/26 06:02:59;;;;;;;6.47;4.30;;;;;;;4.14;56.94;98251.00;5058251;28;20612;-70
2021/04/26 06:05:26;;;;;;;5.47;3.90;;;;;;;4.28;56.08;98255.22;5058912;28;20272;-69
2021/04/26 06:07:54;;;;;;;4.60;4.30;;;;;;;4.28;56.12;98257.84;5061890;28;20226;-70
2021/04/26 06:10:21;;;;;;;3.77;3.43;;;;;;;4.24;57.49;98261.66;5061523;28;20237;-70
2021/04/26 06:12:48;;;;;;;4.30;4.00;;;;;;;4.44;55.79;98258.31;5060919;28;20539;-69
2021/04/26 06:15:15;;;;;;;5.77;4.70;;;;;;;4.41;55.11;98257.72;5060548;28;20231;-71
2021/04/26 06:17:42;;;;;;;5.27;4.13;;;;;;;4.59;57.27;98255.47;5058672;28;20199;-68
2021/04/26 06:20:10;;;;;;;4.63;4.23;;;;;;;4.57;55.43;98260.00;5057391;28;20203;-70
2021/04/26 06:22:37;;;;;;;4.77;4.37;;;;;;;4.77;54.71;98263.69;5061550;28;20315;-70
2021/04/26 06:25:06;;;;;;;4.83;4.23;;;;;;;4.70;54.02;98257.22;5054175;28;20215;-68
2021/04/26 06:27:33;;;;;;;4.83;4.40;;;;;;;4.93;54.05;98258.91;5053577;28;20211;-69
2021/04/26 06:30:01;;;;;;;4.97;4.50;;;;;;;4.99;55.01;98259.34;5060089;28;20502;-68
2021/04/26 06:32:28;;;;;;;4.70;4.30;;;;;;;4.95;54.84;98260.56;5060136;28;20712;-70
2021/04/26 06:34:55;;;;;;;4.87;4.43;;;;;;;5.17;54.17;98254.44;5061501;28;20206;-70
2021/04/26 06:37:22;;;;;;;4.70;4.30;;;;;;;5.33;53.80;98252.25;5061078;28;20203;-69
2021/04/26 06:39:49;;;;;;;4.17;3.50;;;;;;;5.42;52.88;98252.47;5058425;28;20218;-70
2021/04/26 06:42:17;;;;;;;4.93;4.43;;;;;;;5.43;51.75;98259.38;5060794;28;20215;-69
2021/04/26 06:44:44;;;;;;;4.83;4.00;;;;;;;5.53;51.36;98252.41;5060031;28;20642;-69
2021/04/26 06:47:11;;;;;;;6.90;4.30;;;;;;;5.52;52.18;98263.06;5060522;28;20595;-69
2021/04/26 06:49:39;;;;;;;4.07;3.73;;;;;;;5.74;52.11;98252.44;5056290;28;20433;-67
2021/04/26 06:52:06;;;;;;;5.93;3.83;;;;;;;5.71;51.26;98250.06;5060613;28;20627;-68
2021/04/26 06:54:33;;;;;;;4.70;4.30;;;;;;;5.92;50.10;98249.25;5060456;28;20202;-68
2021/04/26 06:57:00;;;;;;;5.30;4.07;;;;;;;5.92;50.32;98252.69;5059867;28;20199;-70
2021/04/26 06:59:28;;;;;;;6.43;4.30;;;;;;;5.94;49.68;98245.50;5061969;28;20210;-69
2021/04/26 07:01:55;;;;;;;4.50;3.70;;;;;;;6.01;50.22;98245.03;5064639;28;20223;-70
2021/04/26 07:04:22;;;;;;;5.97;4.10;;;;;;;6.06;50.26;98246.31;5059981;28;20217;-69
2021/04/26 07:06:49;;;;;;;4.27;3.87;;;;;;;6.18;49.69;98243.59;5063467;28;20750;-71
2021/04/26 07:09:16;;;;;;;4.97;4.47;;;;;;;6.22;48.62;98240.59;5065012;28;20314;-70
2021/04/26 07:11:44;;;;;;;4.80;3.97;;;;;;;6.39;49.47;98238.31;5062822;28;20566;-68
2021/04/26 07:14:12;;;;;;;4.10;3.70;;;;;;;6.49;48.73;98225.19;5062067;28;20232;-70
2021/04/26 07:16:40;;;;;;;6.30;4.30;;;;;;;6.68;48.68;98234.16;5061446;28;20536;-68
2021/04/26 07:19:08;;;;;;;4.43;3.90;;;;;;;6.75;47.94;98227.38;5063232;28;20207;-69
2021/04/26 07:21:35;;;;;;;3.83;3.50;;;;;;;6.76;46.96;98231.69;5058474;28;20373;-69
2021/04/26 07:24:03;;;;;;;3.63;3.43;;;;;;;6.86;48.37;98231.72;5053152;28;20269;-67
2021/04/26 07:26:30;;;;;;;4.63;4.23;;;;;;;6.93;47.71;98228.41;5063662;28;20195;-70
2021/04/26 07:28:57;;;;;;;4.10;3.70;;;;;;;7.10;45.97;98240.09;5061393;28;20211;-68
2021/04/26 07:31:24;;;;;;;4.93;3.63;;;;;;;7.15;46.80;98226.50;5061105;28;20598;-69
2021/04/26 07:33:52;;;;;;;4.83;3.97;;;;;;;7.09;45.10;98229.69;5061253;28;20245;-69
2021/04/26 07:36:20;;;;;;;4.10;3.80;;;;;;;7.29;46.09;98227.06;5063130;28;20210;-69
2021/04/26 07:38:47;;;;;;;3.90;3.60;;;;;;;7.33;45.65;98226.66;5064286;28;20225;-67
2021/04/26 07:41:14;;;;;;;3.00;2.80;;;;;;;7.22;45.78;98234.72;5063602;28;20227;-68
2021/04/26 07:43:41;;;;;;;3.87;3.57;;;;;;;7.41;45.46;98226.00;5062227;28;20206;-68
2021/04/26 07:46:08;;;;;;;3.60;3.30;;;;;;;7.66;45.84;98223.75;5062851;28;20209;-69
2021/04/26 07:48:37;;;;;;;3.83;3.47;;;;;;;7.90;43.76;98225.13;5059835;28;20953;-69
2021/04/26 07:51:06;;;;;;;4.53;3.63;;;;;;;7.72;44.40;98231.09;5060338;28;20230;-69
2021/04/26 07:53:33;;;;;;;6.13;3.90;;;;;;;7.84;44.55;98221.22;5059971;28;20203;-70
2021/04/26 07:56:00;;;;;;;4.20;3.80;;;;;;;7.93;44.88;98225.66;5064575;28;20202;-69
2021/04/26 07:58:28;;;;;;;4.53;3.67;;;;;;;7.99;44.71;98221.63;5054323;28;20207;-69
2021/04/26 08:00:57;;;;;;;4.47;3.27;;;;;;;8.13;43.56;98220.34;5062751;28;20214;-70
2021/04/26 08:03:24;;;;;;;5.40;3.60;;;;;;;8.08;43.88;98217.31;5057723;28;20208;-69
2021/04/26 08:05:51;;;;;;;3.47;3.23;;;;;;;8.18;42.29;98217.28;5062529;28;20195;-70
2021/04/26 08:08:19;;;;;;;4.03;3.70;;;;;;;8.01;41.94;98216.22;5063684;28;20211;-69
2021/04/26 08:10:47;;;;;;;4.27;3.87;;;;;;;7.95;43.43;98218.47;5063122;28;20223;-68
2021/04/26 08:13:14;;;;;;;3.53;3.33;;;;;;;7.96;42.54;98208.72;5063536;28;20210;-68
2021/04/26 08:15:42;;;;;;;3.23;3.03;;;;;;;8.15;43.74;98204.38;5062821;28;20206;-69
2021/04/26 08:18:09;;;;;;;4.20;3.77;;;;;;;8.05;41.43;98207.03;5061159;28;20641;-69
2021/04/26 08:20:36;;;;;;;3.67;3.37;;;;;;;7.89;41.79;98208.44;5060222;28;20642;-67
2021/04/26 08:23:04;;;;;;;3.67;3.47;;;;;;;8.00;42.15;98202.19;5059357;28;20582;-68
2021/04/26 08:25:32;;;;;;;4.83;4.10;;;;;;;8.34;42.34;98201.66;5059612;28;20325;-68
2021/04/26 08:27:59;;;;;;;4.00;3.60;;;;;;;8.69;42.25;98194.88;5061633;28;20362;-69
2021/04/26 08:30:26;;;;;;;3.50;3.20;;;;;;;8.63;40.65;98200.75;5055717;28;20211;-68
2021/04/26 08:32:53;;;;;;;3.73;3.03;;;;;;;8.64;40.77;98193.63;5062709;28;20219;-68
2021/04/26 08:35:20;;;;;;;3.57;3.33;;;;;;;8.47;40.00;98196.06;5063008;28;20700;-70
2021/04/26 08:37:47;;;;;;;3.37;3.10;;;;;;;8.43;40.31;98185.91;5063086;28;20207;-67
2021/04/26 08:40:15;;;;;;;3.67;3.37;;;;;;;8.81;39.94;98179.66;5063216;28;20254;-70
2021/04/26 08:42:42;;;;;;;5.57;2.90;;;;;;;8.77;39.46;98180.09;5061890;28;20296;-69
2021/04/26 08:45:10;;;;;;;6.37;3.03;;;;;;;8.96;40.67;98185.28;5062480;28;20457;-69
2021/04/26 08:47:39;;;;;;;3.20;3.00;;;;;;;9.23;38.70;98180.91;5062362;28;20444;-69
2021/04/26 08:50:07;;;;;;;4.17;2.87;;;;;;;9.34;38.41;98179.84;5059813;28;20199;-70
2021/04/26 08:52:35;;;;;;;3.53;3.10;;;;;;;9.24;37.98;98173.81;5057909;28;20246;-68
2021/04/26 08:55:03;;;;;;;3.43;2.80;;;;;;;9.21;37.94;98177.56;5061858;28;20249;-70
2021/04/26 08:57:30;;;;;;;3.53;3.23;;;;;;;9.18;39.29;98182.34;5055677;28;20218;-69
2021/04/26 08:59:58;;;;;;;3.73;3.53;;;;;;;9.45;39.17;98175.28;5060502;28;20203;-67
2021/04/26 09:02:25;;;;;;;2.80;2.60;;;;;;;9.66;36.60;98167.88;5062490;28;20227;-69
2021/04/26 09:04:55;;;;;;;3.03;2.83;;;;;;;9.71;36.57;98170.06;5060922;28;20563;-69
2021/04/26 09:07:23;;;;;;;2.37;2.27;;;;;;;9.80;36.99;98177.06;5062188;28;20838;-68
2021/04/26 09:09:52;;;;;;;3.83;2.80;;;;;;;9.63;35.59;98169.97;5060969;28;20232;-69
2021/04/26 09:12:27;;;;;;;4.90;2.70;;;;;;;9.50;35.95;98168.56;5062702;28;20316;-69
2021/04/26 09:14:55;;;;;;;4.03;3.23;;;;;;;9.39;34.79;98158.25;5061755;28;20202;-68
2021/04/26 09:17:31;;;;;;;3.50;2.30;;;;;;;9.51;35.63;98166.78;5060790;28;20581;-69
2021/04/26 09:20:03;;;;;;;4.60;2.90;;;;;;;9.68;37.11;98163.25;5056192;28;20521;-68
2021/04/26 09:22:44;;;;;;;3.00;2.67;;;;;;;9.79;36.07;98158.69;5062214;28;20733;-69
2021/04/26 09:25:32;;;;;;;3.10;2.80;;;;;;;10.09;35.63;98159.22;5056949;28;20211;-69
2021/04/26 09:28:02;;;;;;;2.70;2.50;;;;;;;10.37;36.47;98157.19;5060759;28;20206;-70
2021/04/26 09:30:45;;;;;;;3.13;2.90;;;;;;;10.25;36.01;98155.81;5061401;28;20639;-69
2021/04/26 09:33:16;;;;;;;2.93;2.70;;;;;;;10.32;35.41;98154.19;5058861;28;20669;-69
2021/04/26 09:35:43;;;;;;;3.17;2.87;;;;;;;10.30;34.88;98145.59;5061612;28;20209;-69
2021/04/26 09:38:24;;;;;;;6.40;3.03;;;;;;;10.39;35.00;98143.81;5062255;28;20701;-69
2021/04/26 09:41:26;;;;;;;3.30;3.00;;;;;;;10.51;35.14;98136.44;5061433;28;20225;-69
2021/04/26 09:44:07;;;;;;;5.07;2.63;;;;;;;10.43;35.47;98129.28;5054525;28;20202;-69
2021/04/26 09:46:40;;;;;;;5.13;3.07;;;;;;;10.69;33.79;98136.34;5058028;28;20209;-68
2021/04/26 09:49:10;;;;;;;3.70;3.40;;;;;;;10.76;34.38;98132.03;5051545;28;20687;-69
2021/04/26 09:51:37;;;;;;;4.20;3.53;;;;;;;10.87;32.83;98133.56;5058153;28;20226;-67
2021/04/26 09:54:05;;;;;;;3.67;3.33;;;;;;;10.38;34.65;98121.78;5058604;28;20575;-69
2021/04/26 09:56:40;;;;;;;3.13;2.80;;;;;;;10.58;34.72;98124.19;5061113;28;20207;-69
2021/04/26 09:59:10;;;;;;;3.40;3.10;;;;;;;10.92;34.87;98122.44;5061528;28;20207;-69
2021/04/26 10:01:38;;;;;;;6.60;3.30;;;;;;;11.11;32.83;98123.97;5061737;28;20313;-70
2021/04/26 10:04:07;;;;;;;3.70;3.40;;;;;;;11.32;34.83;98114.72;5056651;28;20202;-68
2021/04/26 10:06:37;;;;;;;3.73;3.03;;;;;;;11.05;33.60;98108.72;5059798;28;20230;-69
2021/04/26 10:09:07;;;;;;;3.30;2.93;;;;;;;11.22;32.28;98104.25;5063474;28;20269;-70
2021/04/26 10:11:36;;;;;;;3.77;3.10;;;;;;;11.17;32.07;98109.22;5058909;28;20885;-69
2021/04/26 10:14:05;;;;;;;3.93;3.13;;;;;;;10.73;32.45;98111.16;5050688;28;20210;-69
2021/04/26 10:16:37;;;;;;;3.73;2.73;;;;;;;10.57;33.48;98106.66;5060844;28;20199;-68
2021/04/26 10:19:06;;;;;;;3.13;2.93;;;;;;;10.97;33.81;98098.94;5052845;28;20724;-70
2021/04/26 10:21:34;;;;;;;4.20;3.30;;;;;;;10.99;32.60;98091.66;5060774;28;20609;-68
2021/04/26 10:24:15;;;;;;;4.77;3.10;;;;;;;11.26;34.40;98085.22;5047486;28;20504;-68
2021/04/26 10:26:49;;;;;;;2.83;2.63;;;;;;;11.46;32.45;98082.19;5058041;28;20210;-70
2021/04/26 10:29:23;;;;;;;2.90;2.70;;;;;;;11.62;32.50;98086.66;5060681;28;20218;-69
2021/04/26 10:32:15;;;;;;;4.23;3.10;;;;;;;11.90;31.44;98080.97;5058854;28;20261;-70
2021/04/26 10:35:11;;;;;;;3.37;3.10;;;;;;;12.63;29.92;98080.84;5059696;28;20234;-70
2021/04/26 10:37:39;;;;;;;3.63;2.60;;;;;;;12.35;29.68;98070.72;5059808;28;20286;-67
2021/04/26 10:40:13;;;;;;;3.00;2.80;;;;;;;13.12;29.15;98066.38;5059502;28;20211;-70
2021/04/26 10:42:42;;;;;;;4.57;3.33;;;;;;;12.74;28.80;98069.81;5058535;28;20222;-70
2021/04/26 10:45:30;;;;;;;3.60;3.30;;;;;;;13.07;29.54;98067.91;5058037;28;20218;-71
2021/04/26 10:48:10;;;;;;;3.00;2.60;;;;;;;13.62;28.70;98059.81;5060908;28;20483;-69
2021/04/26 10:50:49;;;;;;;3.07;2.77;;;;;;;14.02;28.47;98050.56;5056091;28;20262;-69
2021/04/26 10:53:18;;;;;;;2.67;2.57;;;;;;;14.00;26.81;98054.41;5061751;28;20213;-69
2021/04/26 10:56:06;;;;;;;3.00;2.80;;;;;;;14.01;27.57;98048.06;5059851;28;20252;-71
2021/04/26 10:58:39;;;;;;;3.30;3.00;;;;;;;14.27;26.00;98036.09;5060322;28;20647;-71
2021/04/26 11:01:08;;;;;;;3.37;2.50;;;;;;;14.91;24.77;98037.22;5059123;28;20221;-70
2021/04/26 11:03:42;;;;;;;4.47;3.20;;;;;;;13.69;26.87;98034.97;5057521;28;20290;-70
2021/04/26 11:06:17;;;;;;;3.00;2.80;;;;;;;13.79;26.05;98031.19;5052008;28;20212;-69
2021/04/26 11:11:41;;;;;;;3.13;2.93;;;;;;;13.43;26.92;98024.72;5051921;28;20231;-70
2021/04/26 11:14:09;;;;;;;5.90;3.27;;;;;;;12.37;28.32;98026.19;5061109;28;20203;-70
2021/04/26 11:16:55;;;;;;;3.00;2.80;;;;;;;13.87;26.94;98020.44;5056881;28;20249;-70
2021/04/26 11:19:22;;;;;;;3.87;2.93;;;;;;;13.40;26.85;98014.41;5059516;28;20294;-70
2021/04/26 11:22:00;;;;;;;3.00;2.70;;;;;;;12.99;27.16;98005.78;5056871;28;20321;-70
2021/04/26 11:25:02;;;;;;;2.70;2.50;;;;;;;12.85;27.46;98009.25;5059391;28;20910;-69
2021/04/26 11:27:34;;;;;;;2.90;2.60;;;;;;;13.36;25.82;98013.13;5061216;28;20248;-71
2021/04/26 11:30:15;;;;;;;3.80;2.50;;;;;;;13.10;26.82;98003.72;5059786;28;20207;-70
2021/04/26 11:33:19;;;;;;;2.73;2.53;;;;;;;12.84;28.83;97999.63;5057766;28;20615;-69
2021/04/26 11:36:15;;;;;;;2.87;2.67;;;;;;;13.60;27.05;97998.75;5060405;28;20210;-70
2021/04/26 11:38:46;;;;;;;2.50;2.30;;;;;;;12.98;26.81;97998.00;5056642;28;20591;-70
2021/04/26 11:41:14;;;;;;;2.67;2.47;;;;;;;13.04;26.54;97989.31;5054786;28;20231;-68
2021/04/26 11:43:47;;;;;;;3.43;2.43;;;;;;;12.85;25.86;97995.94;5057200;28;20547;-69
2021/04/26 11:46:23;;;;;;;2.93;2.60;;;;;;;13.16;26.68;97990.50;5060563;28;20207;-69
2021/04/26 11:48:50;;;;;;;2.67;2.20;;;;;;;13.48;26.48;97982.44;5063934;28;20206;-69
2021/04/26 11:51:31;;;;;;;3.10;2.90;;;;;;;13.68;25.17;97974.72;5062452;28;20650;-70
2021/04/26 11:54:09;;;;;;;2.90;2.37;;;;;;;13.96;25.19;97974.03;5062870;28;20610;-68